createdAt,value
2023-03-02T00:01:48.087Z,2.30
2023-03-02T00:04:20.811Z,2.20
2023-03-02T00:06:49.759Z,2.20
2023-03-02T00:09:18.189Z,2.10
2023-03-02T00:11:46.612Z,2.10
2023-03-02T00:14:14.577Z,2.00
2023-03-02T00:16:42.567Z,2.10
2023-03-02T00:19:11.909Z,2.20
2023-03-02T00:21:40.664Z,2.20
2023-03-02T00:24:09.137Z,2.00
2023-03-02T00:26:37.534Z,1.90
2023-03-02T00:29:05.701Z,1.90
2023-03-02T00:31:33.988Z,2.00
2023-03-02T00:34:02.046Z,1.90
2023-03-02T00:36:31.446Z,2.00
2023-03-02T00:38:59.422Z,2.00
2023-03-02T00:41:27.834Z,2.10
2023-03-02T00:43:56.104Z,2.10
2023-03-02T00:46:25.717Z,2.10
2023-03-02T00:48:53.943Z,2.10
2023-03-02T00:51:22.089Z,2.10
2023-03-02T00:53:51.468Z,2.00
2023-03-02T00:56:19.430Z,1.90
2023-03-02T00:58:47.398Z,1.80
2023-03-02T01:01:17.120Z,1.90
2023-03-02T01:03:46.879Z,1.80
2023-03-02T01:06:17.021Z,1.80
2023-03-02T01:08:45.285Z,1.90
2023-03-02T01:11:19.749Z,1.80
2023-03-02T01:13:47.770Z,1.80
2023-03-02T01:16:16.601Z,1.70
2023-03-02T01:18:44.621Z,1.60
2023-03-02T01:21:14.584Z,1.60
2023-03-02T01:23:42.628Z,1.60
2023-03-02T01:26:10.683Z,1.70
2023-03-02T01:28:40.190Z,1.50
2023-03-02T01:31:08.217Z,1.40
2023-03-02T01:33:36.219Z,1.30
2023-03-02T01:36:04.326Z,1.30
2023-03-02T01:38:32.333Z,1.30
2023-03-02T01:41:00.305Z,1.20
2023-03-02T01:43:29.475Z,1.30
2023-03-02T01:46:01.699Z,1.30
2023-03-02T01:48:33.270Z,1.30
2023-03-02T01:51:02.997Z,1.30
2023-03-02T01:53:33.622Z,1.30
2023-03-02T01:56:03.663Z,1.20
2023-03-02T01:58:35.686Z,1.10
2023-03-02T02:01:05.893Z,1.00
2023-03-02T02:03:33.930Z,1.10
2023-03-02T02:06:10.332Z,1.10
2023-03-02T02:08:39.553Z,1.20
2023-03-02T02:11:08.016Z,1.20
2023-03-02T02:13:36.253Z,1.20
2023-03-02T02:16:06.789Z,1.30
2023-03-02T02:18:36.963Z,1.30
2023-03-02T02:21:06.009Z,1.30
2023-03-02T02:23:40.775Z,1.20
2023-03-02T02:26:18.355Z,1.20
2023-03-02T02:28:51.867Z,1.20
2023-03-02T02:31:23.726Z,1.30
2023-03-02T02:33:55.559Z,1.40
2023-03-02T02:36:26.390Z,1.30
2023-03-02T02:38:57.844Z,1.20
2023-03-02T02:41:31.579Z,1.20
2023-03-02T02:43:59.631Z,1.10
2023-03-02T02:46:27.765Z,1.20
2023-03-02T02:48:55.734Z,1.10
2023-03-02T02:51:27.238Z,1.10
2023-03-02T02:53:58.995Z,1.00
2023-03-02T02:56:35.940Z,0.80
2023-03-02T02:59:08.053Z,0.70
2023-03-02T03:01:36.651Z,0.80
2023-03-02T03:04:06.784Z,0.90
2023-03-02T03:06:42.306Z,1.10
2023-03-02T03:09:11.815Z,1.20
2023-03-02T03:11:44.417Z,1.10
2023-03-02T03:14:15.414Z,1.10
2023-03-02T03:16:45.619Z,1.00
2023-03-02T03:19:19.503Z,1.10
2023-03-02T03:21:50.197Z,1.00
2023-03-02T03:24:18.485Z,0.90
2023-03-02T03:26:47.871Z,1.00
2023-03-02T03:29:18.306Z,1.00
2023-03-02T03:31:46.432Z,1.10
2023-03-02T03:34:14.381Z,0.80
2023-03-02T03:36:43.377Z,0.70
2023-03-02T03:39:12.504Z,0.80
2023-03-02T03:41:40.504Z,0.80
2023-03-02T03:44:10.526Z,0.80
2023-03-02T03:46:38.745Z,0.90
2023-03-02T03:49:07.025Z,0.90
2023-03-02T03:51:35.567Z,0.80
2023-03-02T03:54:03.735Z,0.70
2023-03-02T03:56:34.232Z,0.70
2023-03-02T03:59:07.318Z,0.70
2023-03-02T04:01:39.542Z,0.80
2023-03-02T04:04:10.930Z,0.80
2023-03-02T04:06:39.159Z,1.00
2023-03-02T04:09:07.258Z,1.10
2023-03-02T04:11:36.984Z,1.10
2023-03-02T04:14:05.105Z,1.10
2023-03-02T04:16:34.090Z,1.20
2023-03-02T04:19:04.755Z,1.20
2023-03-02T04:21:32.702Z,1.20
2023-03-02T04:24:00.914Z,1.20
2023-03-02T04:26:28.857Z,1.50
2023-03-02T04:28:56.815Z,1.10
2023-03-02T04:31:24.812Z,1.00
2023-03-02T04:33:52.834Z,1.00
2023-03-02T04:36:22.185Z,1.00
2023-03-02T04:38:50.724Z,1.10
2023-03-02T04:41:19.515Z,1.00
2023-03-02T04:43:47.473Z,0.70
2023-03-02T04:46:16.906Z,0.90
2023-03-02T04:48:45.013Z,0.90
2023-03-02T04:51:20.070Z,1.00
2023-03-02T04:53:49.388Z,1.00
2023-03-02T04:56:17.347Z,1.00
2023-03-02T04:58:45.429Z,1.10
2023-03-02T05:01:14.058Z,1.10
2023-03-02T05:03:42.117Z,1.20
2023-03-02T05:06:10.963Z,1.20
2023-03-02T05:08:39.625Z,1.10
2023-03-02T05:11:09.803Z,1.00
2023-03-02T05:13:37.819Z,1.10
2023-03-02T05:16:06.559Z,1.00
2023-03-02T05:18:34.525Z,1.10
2023-03-02T05:21:02.500Z,1.20
2023-03-02T05:23:31.651Z,1.20
2023-03-02T05:25:59.613Z,1.20
2023-03-02T05:28:29.636Z,1.10
2023-03-02T05:30:57.624Z,1.10
2023-03-02T05:33:25.579Z,1.10
2023-03-02T05:35:53.793Z,1.10
2023-03-02T05:38:22.057Z,1.20
2023-03-02T05:40:50.285Z,1.20
2023-03-02T05:43:21.737Z,0.90
2023-03-02T05:45:51.099Z,0.80
2023-03-02T05:48:19.115Z,0.60
2023-03-02T05:50:47.098Z,0.80
2023-03-02T05:53:15.111Z,0.80
2023-03-02T05:55:43.078Z,0.90
2023-03-02T05:58:14.858Z,0.90
2023-03-02T06:00:42.903Z,1.00
2023-03-02T06:03:12.561Z,1.10
2023-03-02T06:05:41.152Z,1.00
2023-03-02T06:08:09.268Z,0.90
2023-03-02T06:10:37.838Z,1.00
2023-03-02T06:13:05.828Z,0.90
2023-03-02T06:15:33.844Z,0.90
2023-03-02T06:18:01.870Z,1.10
2023-03-02T06:20:31.291Z,1.20
2023-03-02T06:22:59.483Z,1.30
2023-03-02T06:25:27.778Z,1.30
2023-03-02T06:27:55.783Z,1.30
2023-03-02T06:30:28.021Z,1.40
2023-03-02T06:32:55.985Z,1.40
2023-03-02T06:35:24.877Z,1.40
2023-03-02T06:37:54.355Z,1.50
2023-03-02T06:40:22.616Z,1.20
2023-03-02T06:42:50.599Z,1.10
2023-03-02T06:45:18.696Z,1.30
2023-03-02T06:47:46.763Z,1.10
2023-03-02T06:50:14.825Z,1.10
2023-03-02T06:52:42.751Z,1.30
2023-03-02T06:55:12.283Z,1.20
2023-03-02T06:57:40.892Z,1.10
2023-03-02T07:00:14.271Z,1.20
2023-03-02T07:02:42.292Z,1.20
2023-03-02T07:05:10.680Z,1.30
2023-03-02T07:07:38.894Z,1.40
2023-03-02T07:10:08.772Z,1.60
2023-03-02T07:12:39.507Z,1.50
2023-03-02T07:15:12.338Z,1.80
2023-03-02T07:17:41.307Z,1.70
2023-03-02T07:20:11.120Z,1.80
2023-03-02T07:22:39.444Z,2.10
2023-03-02T07:25:08.912Z,2.20
2023-03-02T07:27:37.212Z,2.10
2023-03-02T07:30:07.700Z,2.10
2023-03-02T07:32:35.701Z,2.30
2023-03-02T07:35:04.123Z,2.50
2023-03-02T07:37:32.113Z,2.50
2023-03-02T07:40:00.903Z,2.70
2023-03-02T07:42:29.138Z,2.70
2023-03-02T07:44:57.103Z,2.70
2023-03-02T07:47:26.685Z,2.80
2023-03-02T07:49:54.689Z,2.90
2023-03-02T07:52:22.670Z,2.90
2023-03-02T07:54:50.713Z,3.00
2023-03-02T07:57:18.745Z,3.20
2023-03-02T07:59:46.720Z,3.30
2023-03-02T08:02:16.892Z,3.40
2023-03-02T08:04:46.187Z,3.40
2023-03-02T08:07:14.180Z,3.40
2023-03-02T08:09:42.141Z,3.30
2023-03-02T08:12:10.107Z,3.40
2023-03-02T08:14:39.350Z,3.70
2023-03-02T08:17:07.714Z,3.60
2023-03-02T08:19:35.819Z,3.50
2023-03-02T08:22:05.150Z,3.50
2023-03-02T08:24:33.232Z,3.80
2023-03-02T08:27:02.016Z,3.70
2023-03-02T08:29:30.123Z,3.90
2023-03-02T08:31:58.999Z,4.00
2023-03-02T08:34:27.397Z,4.10
2023-03-02T08:36:55.415Z,4.00
2023-03-02T08:39:25.200Z,4.00
2023-03-02T08:41:53.464Z,4.20
2023-03-02T08:44:22.296Z,4.30
2023-03-02T08:46:50.746Z,4.50
2023-03-02T08:49:19.846Z,4.60
2023-03-02T08:51:49.090Z,4.80
2023-03-02T08:54:17.275Z,4.80
2023-03-02T08:56:46.609Z,4.70
2023-03-02T08:59:15.031Z,4.50
2023-03-02T09:01:44.004Z,5.10
2023-03-02T09:04:12.443Z,5.20
2023-03-02T09:06:42.127Z,5.40
2023-03-02T09:09:11.506Z,5.50
2023-03-02T09:11:39.905Z,5.60
2023-03-02T09:14:09.257Z,5.60
2023-03-02T09:16:37.348Z,5.60
2023-03-02T09:19:05.401Z,5.70
2023-03-02T09:21:33.668Z,5.80
2023-03-02T09:24:01.986Z,5.90
2023-03-02T09:26:29.938Z,6.00
2023-03-02T09:28:58.351Z,6.10
2023-03-02T09:31:30.138Z,6.10
2023-03-02T09:33:58.425Z,6.10
2023-03-02T09:36:27.611Z,6.20
2023-03-02T09:38:56.031Z,6.30
2023-03-02T09:41:49.257Z,6.40
2023-03-02T09:44:40.749Z,6.50
2023-03-02T09:47:33.414Z,6.50
2023-03-02T09:50:12.278Z,6.60
2023-03-02T09:52:46.170Z,6.70
2023-03-02T09:55:17.448Z,7.00
2023-03-02T09:57:46.958Z,9.80
2023-03-02T10:00:19.829Z,9.00
2023-03-02T10:02:52.200Z,8.20
2023-03-02T10:05:23.802Z,7.80
2023-03-02T10:07:52.099Z,7.70
2023-03-02T10:10:30.267Z,7.70
2023-03-02T10:13:20.136Z,7.60
2023-03-02T10:16:02.249Z,7.70
2023-03-02T10:18:38.348Z,7.80
2023-03-02T10:21:12.038Z,7.70
2023-03-02T10:23:48.811Z,7.60
2023-03-02T10:26:36.101Z,7.60
2023-03-02T10:29:15.275Z,7.50
2023-03-02T10:31:46.089Z,7.60
2023-03-02T10:34:15.880Z,8.60
2023-03-02T10:36:47.673Z,10.30
2023-03-02T10:39:17.064Z,11.40
2023-03-02T10:41:51.196Z,10.60
2023-03-02T10:44:23.747Z,10.40
2023-03-02T10:46:53.829Z,9.60
2023-03-02T10:49:28.742Z,9.50
2023-03-02T10:51:59.112Z,9.40
2023-03-02T10:54:28.804Z,9.00
2023-03-02T10:57:00.556Z,8.80
2023-03-02T10:59:43.272Z,8.80
2023-03-02T11:02:17.473Z,9.10
2023-03-02T11:04:47.313Z,9.10
2023-03-02T11:07:18.327Z,9.20
2023-03-02T11:10:00.434Z,9.00
2023-03-02T11:12:29.687Z,9.10
2023-03-02T11:15:18.061Z,9.30
2023-03-02T11:17:47.978Z,9.00
2023-03-02T11:20:25.019Z,8.80
2023-03-02T11:23:15.772Z,8.70
2023-03-02T11:25:49.751Z,8.80
2023-03-02T11:28:32.910Z,8.90
2023-03-02T11:31:03.837Z,9.00
2023-03-02T11:33:38.469Z,8.90
2023-03-02T11:36:13.600Z,9.00
2023-03-02T11:38:48.172Z,9.00
2023-03-02T11:41:30.007Z,9.00
2023-03-02T11:44:02.389Z,9.00
2023-03-02T11:46:32.175Z,9.10
2023-03-02T11:49:05.927Z,9.10
2023-03-02T11:51:47.083Z,9.10
2023-03-02T11:54:34.014Z,9.20
2023-03-02T11:57:02.604Z,9.30
2023-03-02T11:59:31.729Z,9.40
2023-03-02T12:02:01.482Z,9.40
2023-03-02T12:04:33.446Z,9.30
2023-03-02T12:07:05.243Z,9.30
2023-03-02T12:09:36.646Z,9.30
2023-03-02T12:12:40.925Z,9.30
2023-03-02T12:15:36.254Z,9.50
2023-03-02T12:18:04.459Z,9.70
2023-03-02T12:20:34.599Z,9.80
2023-03-02T12:23:22.468Z,9.90
2023-03-02T12:25:51.720Z,10.00
2023-03-02T12:28:32.670Z,10.10
2023-03-02T12:31:07.303Z,10.00
2023-03-02T12:33:44.476Z,9.90
2023-03-02T12:36:15.686Z,10.10
2023-03-02T12:38:54.797Z,10.20
2023-03-02T12:41:35.731Z,9.90
2023-03-02T12:44:18.342Z,10.00
2023-03-02T12:46:48.364Z,10.00
2023-03-02T12:49:28.370Z,10.10
2023-03-02T12:51:58.094Z,10.10
2023-03-02T12:54:29.315Z,10.30
2023-03-02T12:57:06.311Z,10.30
2023-03-02T12:59:34.324Z,10.30
2023-03-02T13:02:16.543Z,10.30
2023-03-02T13:04:44.573Z,10.30
2023-03-02T13:07:18.513Z,10.50
2023-03-02T13:09:56.701Z,10.60
2023-03-02T13:12:27.145Z,10.70
2023-03-02T13:14:57.739Z,10.60
2023-03-02T13:17:29.589Z,10.40
2023-03-02T13:19:58.024Z,10.40
2023-03-02T13:22:27.190Z,10.60
2023-03-02T13:25:03.625Z,10.70
2023-03-02T13:27:33.939Z,10.70
2023-03-02T13:30:12.935Z,10.70
2023-03-02T13:32:43.316Z,10.70
2023-03-02T13:35:20.146Z,10.60
2023-03-02T13:37:48.215Z,10.50
2023-03-02T13:40:38.674Z,10.40
2023-03-02T13:43:37.419Z,10.50
2023-03-02T13:46:07.442Z,10.60
2023-03-02T13:48:35.466Z,10.60
2023-03-02T13:51:05.415Z,10.60
2023-03-02T13:53:38.028Z,10.70
2023-03-02T13:56:08.458Z,10.90
2023-03-02T13:58:39.473Z,10.70
2023-03-02T14:01:08.129Z,10.90
2023-03-02T14:03:36.116Z,11.00
2023-03-02T14:06:06.011Z,10.90
2023-03-02T14:08:34.041Z,10.90
2023-03-02T14:11:03.770Z,11.00
2023-03-02T14:13:38.433Z,11.00
2023-03-02T14:16:07.374Z,10.70
2023-03-02T14:18:39.945Z,10.70
2023-03-02T14:21:13.473Z,10.70
2023-03-02T14:23:42.040Z,10.50
2023-03-02T14:26:24.357Z,10.50
2023-03-02T14:29:04.521Z,10.50
2023-03-02T14:31:33.406Z,10.60
2023-03-02T14:34:01.542Z,10.60
2023-03-02T14:36:32.977Z,10.40
2023-03-02T14:39:03.934Z,10.40
2023-03-02T14:41:38.349Z,10.30
2023-03-02T14:44:12.893Z,10.40
2023-03-02T14:46:41.015Z,10.40
2023-03-02T14:49:08.979Z,10.30
2023-03-02T14:51:40.438Z,10.30
2023-03-02T14:54:13.866Z,10.20
2023-03-02T14:56:42.941Z,10.40
2023-03-02T14:59:14.729Z,10.20
2023-03-02T15:01:44.525Z,10.10
2023-03-02T15:04:12.574Z,10.10
2023-03-02T15:06:42.277Z,10.00
2023-03-02T15:09:12.532Z,9.90
2023-03-02T15:11:40.471Z,10.00
2023-03-02T15:14:08.413Z,9.90
2023-03-02T15:16:37.762Z,10.00
2023-03-02T15:19:05.737Z,10.10
2023-03-02T15:21:34.016Z,10.20
2023-03-02T15:24:02.273Z,10.30
2023-03-02T15:26:30.295Z,10.20
2023-03-02T15:28:58.288Z,10.00
2023-03-02T15:31:28.337Z,9.90
2023-03-02T15:33:57.877Z,9.60
2023-03-02T15:36:26.436Z,9.70
2023-03-02T15:38:55.122Z,9.80
2023-03-02T15:41:23.265Z,9.80
2023-03-02T15:43:52.182Z,9.80
2023-03-02T15:46:20.307Z,9.80
2023-03-02T15:48:48.335Z,9.70
2023-03-02T15:51:17.677Z,9.60
2023-03-02T15:53:45.794Z,9.60
2023-03-02T15:56:16.917Z,9.50
2023-03-02T15:58:48.036Z,9.40
2023-03-02T16:01:17.037Z,9.30
2023-03-02T16:03:45.481Z,9.20
2023-03-02T16:06:15.731Z,9.10
2023-03-02T16:08:45.396Z,9.10
2023-03-02T16:11:18.664Z,9.00
2023-03-02T16:13:46.852Z,9.00
2023-03-02T16:16:14.872Z,8.90
2023-03-02T16:18:42.880Z,8.90
2023-03-02T16:21:14.110Z,8.80
2023-03-02T16:23:42.091Z,8.70
2023-03-02T16:26:14.399Z,8.70
2023-03-02T16:28:42.492Z,8.60
2023-03-02T16:31:12.913Z,8.40
2023-03-02T16:33:42.129Z,8.50
2023-03-02T16:36:10.823Z,8.40
2023-03-02T16:38:39.963Z,8.30
2023-03-02T16:41:15.582Z,8.20
2023-03-02T16:43:47.513Z,8.20
2023-03-02T16:46:15.739Z,8.10
2023-03-02T16:48:44.557Z,8.00
2023-03-02T16:51:12.569Z,8.00
2023-03-02T16:53:40.942Z,8.10
2023-03-02T16:56:10.196Z,8.10
2023-03-02T16:58:39.864Z,8.10
2023-03-02T17:01:08.742Z,7.90
2023-03-02T17:03:36.832Z,7.90
2023-03-02T17:06:06.430Z,7.80
2023-03-02T17:08:34.791Z,7.70
2023-03-02T17:11:02.808Z,7.60
2023-03-02T17:13:31.187Z,7.60
2023-03-02T17:16:00.833Z,7.60
2023-03-02T17:18:30.111Z,7.60
2023-03-02T17:20:59.542Z,7.60
2023-03-02T17:23:28.176Z,7.50
2023-03-02T17:25:56.587Z,7.40
2023-03-02T17:28:24.736Z,7.30
2023-03-02T17:30:53.144Z,7.20
2023-03-02T17:33:22.435Z,7.10
2023-03-02T17:35:50.504Z,7.10
2023-03-02T17:38:18.645Z,7.10
2023-03-02T17:40:46.586Z,7.10
2023-03-02T17:43:14.532Z,7.10
2023-03-02T17:45:42.458Z,7.10
2023-03-02T17:48:10.480Z,7.20
2023-03-02T17:50:39.827Z,7.10
2023-03-02T17:53:07.793Z,7.00
2023-03-02T17:55:35.786Z,7.00
2023-03-02T17:58:03.726Z,6.90
2023-03-02T18:00:31.986Z,6.90
2023-03-02T18:03:00.011Z,6.90
2023-03-02T18:05:28.212Z,6.90
2023-03-02T18:07:57.494Z,6.80
2023-03-02T18:10:25.494Z,6.70
2023-03-02T18:12:54.490Z,6.60
2023-03-02T18:15:22.615Z,6.50
2023-03-02T18:17:50.698Z,6.40
2023-03-02T18:20:18.817Z,6.30
2023-03-02T18:22:46.797Z,6.30
2023-03-02T18:25:16.420Z,6.20
2023-03-02T18:27:44.494Z,6.20
2023-03-02T18:30:13.302Z,6.20
2023-03-02T18:32:41.280Z,6.10
2023-03-02T18:35:10.455Z,6.10
2023-03-02T18:37:38.487Z,5.90
2023-03-02T18:40:08.108Z,5.90
2023-03-02T18:42:37.426Z,5.90
2023-03-02T18:45:06.477Z,5.80
2023-03-02T18:47:36.498Z,5.90
2023-03-02T18:50:06.072Z,5.80
2023-03-02T18:52:34.036Z,5.70
2023-03-02T18:55:02.084Z,5.70
2023-03-02T18:57:30.046Z,5.60
2023-03-02T18:59:59.446Z,5.60
2023-03-02T19:02:28.500Z,5.60
2023-03-02T19:04:56.463Z,5.40
2023-03-02T19:07:24.448Z,5.40
2023-03-02T19:09:52.527Z,5.40
2023-03-02T19:12:20.654Z,5.40
2023-03-02T19:14:48.725Z,5.30
2023-03-02T19:17:18.079Z,5.30
2023-03-02T19:19:46.098Z,5.30
2023-03-02T19:22:16.545Z,5.20
2023-03-02T19:24:45.728Z,5.10
2023-03-02T19:27:13.886Z,5.10
2023-03-02T19:29:42.511Z,5.10
2023-03-02T19:32:14.272Z,5.00
2023-03-02T19:34:44.384Z,5.00
2023-03-02T19:37:12.445Z,5.10
2023-03-02T19:39:40.514Z,5.00
2023-03-02T19:42:08.837Z,5.10
2023-03-02T19:44:37.310Z,5.20
2023-03-02T19:47:06.229Z,5.00
2023-03-02T19:49:34.203Z,5.00
2023-03-02T19:52:03.544Z,4.80
2023-03-02T19:54:31.544Z,4.90
2023-03-02T19:56:59.794Z,4.80
2023-03-02T19:59:29.701Z,4.80
2023-03-02T20:01:59.470Z,4.80
2023-03-02T20:04:27.859Z,4.70
2023-03-02T20:06:55.909Z,4.80
2023-03-02T20:09:25.232Z,4.90
2023-03-02T20:11:53.180Z,4.90
2023-03-02T20:14:33.448Z,4.80
2023-03-02T20:17:02.010Z,4.70
2023-03-02T20:19:30.011Z,4.60
2023-03-02T20:21:57.966Z,4.50
2023-03-02T20:24:27.341Z,4.60
2023-03-02T20:26:55.404Z,4.50
2023-03-02T20:29:23.406Z,4.40
2023-03-02T20:31:51.652Z,4.40
2023-03-02T20:34:19.735Z,4.40
2023-03-02T20:36:47.952Z,4.30
2023-03-02T20:39:24.034Z,4.30
2023-03-02T20:41:53.504Z,4.30
2023-03-02T20:44:22.335Z,4.30
2023-03-02T20:46:54.300Z,4.50
2023-03-02T20:49:23.327Z,4.50
2023-03-02T20:51:54.806Z,4.40
2023-03-02T20:54:24.254Z,4.20
2023-03-02T20:56:54.017Z,4.00
2023-03-02T20:59:22.949Z,3.80
2023-03-02T21:01:51.163Z,3.80
2023-03-02T21:04:19.260Z,3.80
2023-03-02T21:06:47.359Z,3.50
2023-03-02T21:09:17.893Z,3.50
2023-03-02T21:11:46.468Z,3.50
2023-03-02T21:14:16.003Z,3.50
2023-03-02T21:16:45.128Z,3.60
2023-03-02T21:19:16.233Z,3.70
2023-03-02T21:21:44.335Z,3.70
2023-03-02T21:24:16.638Z,3.80
2023-03-02T21:26:45.142Z,3.90
2023-03-02T21:29:15.162Z,4.00
2023-03-02T21:31:43.979Z,4.00
2023-03-02T21:34:12.619Z,3.90
2023-03-02T21:36:40.605Z,3.80
2023-03-02T21:39:10.322Z,3.70
2023-03-02T21:41:40.279Z,3.60
2023-03-02T21:44:08.505Z,3.50
2023-03-02T21:46:39.187Z,3.40
2023-03-02T21:49:07.451Z,3.40
2023-03-02T21:51:35.647Z,3.40
2023-03-02T21:54:03.742Z,3.30
2023-03-02T21:56:31.794Z,3.30
2023-03-02T21:59:00.000Z,3.50
2023-03-02T22:01:29.776Z,3.50
2023-03-02T22:03:59.363Z,3.60
2023-03-02T22:06:29.500Z,3.60
2023-03-02T22:08:58.154Z,3.60
2023-03-02T22:11:28.992Z,3.70
2023-03-02T22:13:59.436Z,3.70
2023-03-02T22:16:29.196Z,3.70
2023-03-02T22:19:00.185Z,3.70
2023-03-02T22:21:32.019Z,3.80
2023-03-02T22:24:15.518Z,3.80
2023-03-02T22:26:45.007Z,3.60
2023-03-02T22:29:16.272Z,3.70
2023-03-02T22:31:47.115Z,3.70
2023-03-02T22:34:20.716Z,3.80
2023-03-02T22:36:48.931Z,3.70
2023-03-02T22:39:21.881Z,3.40
2023-03-02T22:41:50.844Z,3.30
2023-03-02T22:44:21.741Z,3.40
2023-03-02T22:46:49.913Z,3.40
2023-03-02T22:49:19.222Z,3.50
2023-03-02T22:51:47.206Z,3.50
2023-03-02T22:54:22.631Z,3.60
2023-03-02T22:56:52.369Z,3.60
2023-03-02T22:59:24.467Z,3.60
2023-03-02T23:01:53.635Z,3.40
2023-03-02T23:04:25.090Z,3.30
2023-03-02T23:06:54.843Z,3.30
2023-03-02T23:09:24.939Z,3.40
2023-03-02T23:11:54.682Z,3.50
2023-03-02T23:14:26.001Z,3.50
2023-03-02T23:16:58.124Z,3.50
2023-03-02T23:19:29.648Z,3.50
2023-03-02T23:21:58.587Z,3.40
2023-03-02T23:24:27.262Z,3.40
2023-03-02T23:26:55.246Z,3.40
2023-03-02T23:29:23.629Z,3.30
2023-03-02T23:31:51.711Z,3.30
2023-03-02T23:34:19.817Z,3.30
2023-03-02T23:36:49.135Z,3.30
2023-03-02T23:39:17.626Z,3.40
2023-03-02T23:41:45.699Z,3.30
2023-03-02T23:44:13.706Z,3.20
2023-03-02T23:46:41.661Z,3.10
2023-03-02T23:49:10.082Z,3.10
2023-03-02T23:51:38.082Z,3.20
2023-03-02T23:54:08.010Z,3.20
2023-03-02T23:56:36.106Z,2.90
2023-03-02T23:59:04.297Z,3.30
